Portada
METAR-TAF:

METAR-TAF

Aeroports :

Liberia, Costa Rica

latitud: 10-37N, longitud: 085-26W, altitud: 80 m

Observació

L'informe es va fer fa 1 hora i 6 minuts, a les 17:00 UTC
Vent 9 kt del Est/Sud-Est
Temperatura 32°C
Humitat 52%
Pressió 1013 hPa
Visibilitat 10 km o més
Escasses núvols a una alçada de 4500 ft

METAR: MRLB 221700Z 11009KT 9999 FEW045 32/21 A2990 NOSIG

Hora: 12:06 (18:06 UTC)

Pronòstic

L'informe es va fer fa 1 hora i 6 minuts, a les 17:00 UTC
Pronòstic vàlid del 22 a les 18 UTC al 23 a les 18 UTC
Vent 9 kt del Est/Sud-Est
Visibilitat 10 km o més
Escasses núvols a una alçada de 4500 ft
Temporalment
l' 22 a les 19 UTC al 22 a les 24 UTC
Vent 7 kt del Oest/Nord-Oest
Temporalment
l' 23 a les 09 UTC al 23 a les 14 UTC
Vent 2 kt amb direcció variable

TAF: MRLB 221700Z 2218/2318 12009KT 9999 FEW045 TX32/2219Z TN20/2212Z TEMPO 2219/2224 29007KT TEMPO 2309/2314 VRB02KT

Observacions i pronòstics meteorològics de més de 4000 aeroports (METAR i TAF).

Les estacions disponibles són els punts grocs i vermells al mapa.

Posi el ratolí al punt desitjat per veure el nom de l'estació.

Feu clic per veure les observacions i els pronòstics meteorològics.

Per canviar el mapa: feu clic els botons verds amb una creu de color negre per apropar; al botó verd amb un guió per allunyar la imatge; o en les fletxes verdes per a mapes adjacents.


METAR-TAF: